Time;durP1;ratioP1;P1;durP2;ratioP2;P2;SDS_P1;SDS_P2;PMS_P1;PMS_P2;Temp;Humidity;BMP_temperature;BMP_pressure;BME280_temperature;BME280_humidity;BME280_pressure;Samples;Min_cycle;Max_cycle;Signal;HPM_P1;HPM_P2
2024/01/13 00:00:53;;;;;;;29.23;14.88;;;2.40;99.90;;;;;;5093734;28;20200;-62
2024/01/13 00:03:20;;;;;;;27.00;15.07;;;2.40;99.90;;;;;;5093564;28;20238;-61
2024/01/13 00:05:47;;;;;;;28.75;17.65;;;2.40;99.90;;;;;;5094108;28;20204;-61
2024/01/13 00:08:13;;;;;;;33.17;17.10;;;2.40;99.90;;;;;;5095195;28;20634;-61
2024/01/13 00:10:41;;;;;;;31.33;17.95;;;2.40;99.90;;;;;;5097812;28;20394;-61
2024/01/13 00:13:08;;;;;;;26.83;14.48;;;2.40;99.90;;;;;;5098577;28;20236;-62
2024/01/13 00:15:35;;;;;;;29.05;17.08;;;2.40;99.90;;;;;;5097312;28;20619;-61
2024/01/13 00:18:02;;;;;;;31.67;17.17;;;2.40;99.90;;;;;;5097713;28;20302;-61
2024/01/13 00:20:29;;;;;;;34.92;17.25;;;2.40;99.90;;;;;;5096977;28;20324;-61
2024/01/13 00:22:56;;;;;;;26.95;13.70;;;2.40;99.90;;;;;;5093855;28;20277;-62
2024/01/13 00:25:22;;;;;;;26.15;16.67;;;2.40;99.90;;;;;;5092874;28;20204;-62
2024/01/13 00:27:50;;;;;;;36.40;18.98;;;2.40;99.90;;;;;;5093480;28;20203;-61
2024/01/13 00:30:17;;;;;;;28.20;16.38;;;2.40;99.90;;;;;;5097200;28;20674;-61
2024/01/13 00:32:44;;;;;;;33.40;17.35;;;2.40;99.90;;;;;;5097412;28;20224;-62
2024/01/13 00:35:12;;;;;;;33.33;17.95;;;2.40;99.90;;;;;;5096795;28;20574;-62
2024/01/13 00:37:39;;;;;;;30.50;18.33;;;2.40;99.90;;;;;;5097357;28;20793;-62
2024/01/13 00:40:08;;;;;;;30.15;18.70;;;2.40;99.90;;;;;;5097652;28;20651;-61
2024/01/13 00:42:35;;;;;;;31.95;18.65;;;2.40;99.90;;;;;;5081005;28;20227;-61
2024/01/13 00:45:03;;;;;;;32.50;17.25;;;2.40;99.90;;;;;;5098952;28;20277;-61
2024/01/13 00:47:30;;;;;;;30.88;19.02;;;2.30;99.90;;;;;;5098260;28;20222;-61
2024/01/13 00:49:57;;;;;;;33.78;19.95;;;2.40;99.90;;;;;;5097649;28;20204;-61
2024/01/13 00:52:24;;;;;;;29.67;16.42;;;2.40;99.90;;;;;;5096879;28;20314;-61
2024/01/13 00:54:51;;;;;;;31.40;17.67;;;2.40;99.90;;;;;;5096923;28;20578;-61
2024/01/13 00:57:17;;;;;;;28.55;18.25;;;2.40;99.90;;;;;;5096994;28;20570;-61
2024/01/13 00:59:44;;;;;;;33.25;16.10;;;2.40;99.90;;;;;;5097056;28;20222;-61
2024/01/13 01:02:12;;;;;;;29.75;17.00;;;2.40;99.90;;;;;;5096753;28;20232;-62
2024/01/13 01:04:39;;;;;;;28.27;17.13;;;2.40;99.90;;;;;;5096571;28;20294;-61
2024/01/13 01:07:06;;;;;;;26.65;15.60;;;2.40;99.90;;;;;;5097398;28;20207;-62
2024/01/13 01:09:33;;;;;;;25.73;15.15;;;2.40;99.90;;;;;;5096689;28;20291;-62
2024/01/13 01:12:00;;;;;;;24.48;15.40;;;2.40;99.90;;;;;;5096625;28;20224;-61
2024/01/13 01:14:27;;;;;;;26.98;16.40;;;2.40;99.90;;;;;;5096389;28;20208;-62
2024/01/13 01:16:54;;;;;;;19.60;12.55;;;2.40;99.90;;;;;;5096573;28;20721;-63
2024/01/13 01:19:23;;;;;;;27.65;15.13;;;2.40;99.90;;;;;;5096671;28;20310;-62
2024/01/13 01:21:50;;;;;;;21.65;13.00;;;2.40;99.90;;;;;;5096756;28;20647;-61
2024/01/13 01:24:16;;;;;;;19.52;13.15;;;2.40;99.90;;;;;;5097165;28;20211;-61
2024/01/13 01:26:43;;;;;;;18.60;12.10;;;2.40;99.90;;;;;;5096831;28;20196;-62
2024/01/13 01:29:10;;;;;;;22.58;12.10;;;2.40;99.90;;;;;;5096497;28;20208;-61
2024/01/13 01:31:37;;;;;;;19.23;12.13;;;2.40;99.90;;;;;;5096501;28;20227;-61
2024/01/13 01:34:04;;;;;;;19.27;12.45;;;2.40;99.90;;;;;;5095798;28;20666;-62
2024/01/13 01:36:32;;;;;;;19.83;12.73;;;2.40;99.90;;;;;;5097017;28;20238;-61
2024/01/13 01:38:59;;;;;;;20.48;12.95;;;2.40;99.90;;;;;;5096043;28;20664;-61
2024/01/13 01:41:26;;;;;;;18.02;12.00;;;2.40;99.90;;;;;;5095828;28;20207;-61
2024/01/13 01:43:53;;;;;;;20.10;12.75;;;2.40;99.90;;;;;;5097154;28;20204;-62
2024/01/13 01:46:23;;;;;;;19.95;11.45;;;2.40;99.90;;;;;;5095665;28;20584;-62
2024/01/13 01:48:56;;;;;;;18.10;10.70;;;2.40;99.90;;;;;;5096056;28;20281;-60
2024/01/13 01:51:23;;;;;;;15.50;10.75;;;2.40;99.90;;;;;;5096582;28;20180;-60
2024/01/13 01:53:51;;;;;;;8.40;5.80;;;2.40;99.90;;;;;;5095965;28;20677;-60
2024/01/13 01:56:20;;;;;;;16.15;10.27;;;2.40;99.90;;;;;;5096200;28;20212;-61
2024/01/13 01:58:48;;;;;;;15.15;9.43;;;2.40;99.90;;;;;;5096748;28;20220;-61
2024/01/13 02:01:15;;;;;;;16.48;10.23;;;2.40;99.90;;;;;;5095739;28;20200;-62
2024/01/13 02:03:42;;;;;;;16.77;11.30;;;2.40;99.90;;;;;;5095989;28;20212;-61
2024/01/13 02:06:10;;;;;;;14.10;10.90;;;2.40;99.90;;;;;;5096097;28;20207;-61
2024/01/13 02:08:37;;;;;;;13.63;9.30;;;2.40;99.90;;;;;;5096184;28;20662;-61
2024/01/13 02:11:06;;;;;;;16.38;9.82;;;2.40;99.90;;;;;;5096515;28;20231;-61
2024/01/13 02:13:33;;;;;;;14.90;10.93;;;2.40;99.90;;;;;;5096373;28;20220;-61
2024/01/13 02:16:00;;;;;;;15.07;9.77;;;2.40;99.90;;;;;;5095702;28;20537;-61
2024/01/13 02:18:27;;;;;;;15.45;9.55;;;2.40;99.90;;;;;;5095245;28;20220;-61
2024/01/13 02:20:54;;;;;;;12.75;9.77;;;2.40;99.90;;;;;;5095679;28;20203;-61
2024/01/13 02:23:23;;;;;;;14.20;9.55;;;2.40;99.90;;;;;;5095247;28;20220;-61
2024/01/13 02:25:49;;;;;;;11.63;7.68;;;2.40;99.90;;;;;;5095416;28;20362;-61
2024/01/13 02:28:17;;;;;;;15.60;9.57;;;2.40;99.90;;;;;;5095773;28;20202;-61
2024/01/13 02:30:44;;;;;;;12.63;8.95;;;2.40;99.90;;;;;;5096416;28;20207;-61
2024/01/13 02:33:11;;;;;;;14.25;9.18;;;2.40;99.90;;;;;;5094955;28;20227;-61
2024/01/13 02:35:38;;;;;;;13.68;8.75;;;2.40;99.90;;;;;;5095321;28;20196;-61
2024/01/13 02:38:05;;;;;;;14.27;10.00;;;2.40;99.90;;;;;;5095943;28;20804;-61
2024/01/13 02:40:34;;;;;;;13.43;7.85;;;2.40;99.90;;;;;;5096247;28;20227;-61
2024/01/13 02:43:00;;;;;;;14.40;8.93;;;2.40;99.90;;;;;;5097948;28;20274;-61
2024/01/13 02:45:27;;;;;;;11.50;7.05;;;2.40;99.90;;;;;;5097112;28;20200;-61
2024/01/13 02:47:59;;;;;;;15.45;9.43;;;2.40;99.90;;;;;;5097454;28;20208;-61
2024/01/13 02:50:26;;;;;;;14.27;10.20;;;2.30;99.90;;;;;;5097464;28;20196;-61
2024/01/13 02:52:53;;;;;;;14.18;9.00;;;2.30;99.90;;;;;;5096164;28;20231;-61
2024/01/13 02:55:19;;;;;;;11.10;7.88;;;2.30;99.90;;;;;;5096394;28;20206;-61
2024/01/13 02:57:48;;;;;;;12.60;8.05;;;2.30;99.90;;;;;;5095125;28;20204;-61
2024/01/13 03:00:17;;;;;;;14.75;8.30;;;2.30;99.90;;;;;;5094710;28;20307;-64
2024/01/13 03:02:44;;;;;;;11.73;10.48;;;2.30;99.90;;;;;;5095035;28;20228;-61
2024/01/13 03:05:11;;;;;;;13.38;8.57;;;2.30;99.90;;;;;;5095090;28;20208;-60
2024/01/13 03:07:38;;;;;;;13.55;8.60;;;2.30;99.90;;;;;;5094726;28;20204;-60
2024/01/13 03:10:06;;;;;;;14.85;8.45;;;2.30;99.90;;;;;;5094336;28;20197;-60
2024/01/13 03:12:33;;;;;;;15.02;9.15;;;2.20;99.90;;;;;;5094257;28;20255;-60
2024/01/13 03:15:02;;;;;;;14.10;9.30;;;2.30;99.90;;;;;;5094678;28;20199;-60
2024/01/13 03:17:29;;;;;;;10.23;7.45;;;2.20;99.90;;;;;;5094620;28;20201;-61
2024/01/13 03:19:56;;;;;;;11.65;7.32;;;2.20;99.90;;;;;;5094591;28;20311;-61
2024/01/13 03:22:23;;;;;;;15.50;9.20;;;2.20;99.90;;;;;;5094754;28;20220;-62
2024/01/13 03:24:50;;;;;;;12.75;8.57;;;2.20;99.90;;;;;;5095160;28;20640;-62
2024/01/13 03:27:17;;;;;;;14.63;9.15;;;2.20;99.90;;;;;;5094544;28;20654;-61
2024/01/13 03:29:44;;;;;;;12.20;8.90;;;2.20;99.90;;;;;;5094761;28;20200;-62
2024/01/13 03:32:12;;;;;;;12.13;8.20;;;2.20;99.90;;;;;;5094013;28;20224;-61
2024/01/13 03:34:39;;;;;;;13.57;9.27;;;2.20;99.90;;;;;;5095036;28;20236;-61
2024/01/13 03:37:06;;;;;;;13.50;9.32;;;2.20;99.90;;;;;;5094275;28;20207;-62
2024/01/13 03:39:33;;;;;;;10.23;7.40;;;2.20;99.90;;;;;;5094232;28;20226;-61
2024/01/13 03:41:59;;;;;;;11.15;7.45;;;2.20;99.90;;;;;;5093568;28;20220;-61
2024/01/13 03:44:26;;;;;;;9.68;6.75;;;2.20;99.90;;;;;;5093735;28;20196;-61
2024/01/13 03:46:53;;;;;;;9.88;7.10;;;2.20;99.90;;;;;;5093733;28;20280;-61
2024/01/13 03:49:21;;;;;;;8.63;6.20;;;2.20;99.90;;;;;;5093606;28;20254;-61
2024/01/13 03:51:48;;;;;;;10.60;7.43;;;2.20;99.90;;;;;;5093090;28;20718;-62
2024/01/13 03:54:15;;;;;;;9.88;6.03;;;2.20;99.90;;;;;;5092972;28;20555;-61
2024/01/13 03:56:42;;;;;;;11.95;7.03;;;2.20;99.90;;;;;;5093211;28;20682;-61
2024/01/13 03:59:08;;;;;;;11.40;7.05;;;2.20;99.90;;;;;;5093516;28;20248;-61
2024/01/13 04:01:35;;;;;;;9.15;7.35;;;2.20;99.90;;;;;;5093452;28;20220;-61
2024/01/13 04:04:02;;;;;;;10.55;6.65;;;2.20;99.90;;;;;;5093144;28;20279;-61
2024/01/13 04:06:30;;;;;;;8.10;6.15;;;2.20;99.90;;;;;;5093158;28;20295;-61
2024/01/13 04:08:57;;;;;;;8.45;6.15;;;2.20;99.90;;;;;;5093112;28;20291;-61
2024/01/13 04:12:58;;;;;;;6.90;5.22;;;2.20;99.90;;;;;;5091164;27;20617;-62
2024/01/13 04:15:25;;;;;;;7.75;5.43;;;2.20;99.90;;;;;;5090284;28;20200;-63
2024/01/13 04:17:52;;;;;;;8.05;5.20;;;2.20;99.90;;;;;;5090423;28;20196;-60
2024/01/13 04:20:18;;;;;;;7.03;5.07;;;2.10;99.90;;;;;;5090258;28;20210;-62
2024/01/13 04:22:45;;;;;;;7.38;5.20;;;2.10;99.90;;;;;;5090533;28;20220;-62
2024/01/13 04:25:12;;;;;;;8.05;5.75;;;2.10;99.90;;;;;;5090846;28;20283;-62
2024/01/13 04:27:39;;;;;;;7.70;5.20;;;2.10;99.90;;;;;;5090409;28;20201;-63
2024/01/13 04:30:08;;;;;;;11.82;5.60;;;2.10;99.90;;;;;;5091756;28;20200;-62
2024/01/13 04:32:35;;;;;;;7.03;5.80;;;2.10;99.90;;;;;;5090581;28;20235;-62
2024/01/13 04:35:01;;;;;;;7.00;5.25;;;2.10;99.90;;;;;;5091117;28;20200;-62
2024/01/13 04:37:28;;;;;;;5.55;4.13;;;2.10;99.90;;;;;;5090663;28;20230;-63
2024/01/13 04:39:55;;;;;;;6.28;4.57;;;2.10;99.90;;;;;;5090732;28;20207;-62
2024/01/13 04:42:22;;;;;;;6.57;4.32;;;2.10;99.90;;;;;;5090843;28;20298;-62
2024/01/13 04:44:49;;;;;;;8.25;5.20;;;2.10;99.90;;;;;;5092274;28;20212;-63
2024/01/13 04:47:17;;;;;;;7.32;4.57;;;2.10;99.90;;;;;;5091893;28;20208;-61
2024/01/13 04:49:44;;;;;;;6.43;5.20;;;2.10;99.90;;;;;;5092624;28;20203;-63
2024/01/13 04:52:10;;;;;;;5.95;3.97;;;2.10;99.90;;;;;;5091695;28;20220;-62
2024/01/13 04:54:37;;;;;;;6.30;4.45;;;2.10;99.90;;;;;;5090044;28;20212;-62
2024/01/13 04:57:04;;;;;;;6.45;4.85;;;2.10;99.90;;;;;;5089819;28;20197;-63
2024/01/13 04:59:31;;;;;;;6.90;4.75;;;2.10;99.90;;;;;;5089710;28;20222;-62
2024/01/13 05:01:58;;;;;;;5.50;3.95;;;2.10;99.90;;;;;;5098232;22;20222;-64
2024/01/13 05:04:26;;;;;;;5.50;3.83;;;2.10;99.90;;;;;;5073881;28;20201;-66
2024/01/13 05:06:53;;;;;;;9.02;3.80;;;2.10;99.90;;;;;;5070701;28;20670;-65
2024/01/13 05:09:20;;;;;;;6.60;3.30;;;2.10;99.90;;;;;;5070653;28;20590;-65
2024/01/13 05:11:47;;;;;;;3.80;2.72;;;2.10;99.90;;;;;;5070654;28;20232;-65
2024/01/13 05:14:15;;;;;;;4.45;2.85;;;2.10;99.90;;;;;;5070061;28;20208;-66
2024/01/13 05:16:41;;;;;;;5.90;3.03;;;2.10;99.90;;;;;;5070478;28;20288;-65
2024/01/13 05:19:09;;;;;;;5.53;2.70;;;2.10;99.90;;;;;;5070684;28;20212;-65
2024/01/13 05:21:37;;;;;;;4.93;3.05;;;2.10;99.90;;;;;;5071143;28;20217;-65
2024/01/13 05:24:04;;;;;;;7.78;3.92;;;2.10;99.90;;;;;;5060021;28;20202;-65
2024/01/13 05:26:31;;;;;;;5.18;3.10;;;2.10;99.90;;;;;;5056981;28;20568;-65
2024/01/13 05:28:58;;;;;;;3.25;2.40;;;2.10;99.90;;;;;;5056997;28;20202;-65
2024/01/13 05:31:24;;;;;;;7.43;3.35;;;2.10;99.90;;;;;;5057544;28;20229;-65
2024/01/13 05:33:51;;;;;;;2.63;1.98;;;2.10;99.90;;;;;;5056459;28;20288;-64
2024/01/13 05:36:18;;;;;;;3.60;2.65;;;2.10;99.90;;;;;;5056701;28;20213;-66
2024/01/13 05:38:46;;;;;;;5.32;3.20;;;2.10;99.90;;;;;;5056944;28;20212;-66
2024/01/13 05:41:13;;;;;;;3.17;2.78;;;2.10;99.90;;;;;;5057478;28;20221;-66
2024/01/13 05:43:39;;;;;;;6.00;2.60;;;2.10;99.90;;;;;;5056813;28;20202;-64
2024/01/13 05:46:06;;;;;;;5.10;2.83;;;2.10;99.90;;;;;;5057318;28;20208;-65
2024/01/13 05:48:33;;;;;;;5.55;3.20;;;2.10;99.90;;;;;;5056863;28;20293;-65
2024/01/13 05:51:00;;;;;;;3.80;2.75;;;2.10;99.90;;;;;;5056706;28;20738;-66
2024/01/13 05:53:26;;;;;;;4.25;3.05;;;2.10;99.90;;;;;;5056651;28;20212;-66
2024/01/13 05:55:54;;;;;;;4.13;3.10;;;2.10;99.90;;;;;;5057142;28;20216;-65
2024/01/13 05:58:21;;;;;;;4.97;3.10;;;2.10;99.90;;;;;;5056754;28;20213;-66
2024/01/13 06:00:48;;;;;;;4.90;3.10;;;2.10;99.90;;;;;;5060458;28;20216;-64
2024/01/13 06:03:15;;;;;;;3.85;3.03;;;2.10;99.90;;;;;;5070602;28;20207;-65
2024/01/13 06:05:41;;;;;;;4.75;3.60;;;2.10;99.90;;;;;;5064941;28;20206;-65
2024/01/13 06:08:08;;;;;;;4.22;3.00;;;2.10;99.90;;;;;;5057723;28;20205;-66
2024/01/13 06:10:35;;;;;;;3.28;2.47;;;2.10;99.90;;;;;;5056208;28;20205;-64
2024/01/13 06:13:03;;;;;;;3.70;3.03;;;2.10;99.90;;;;;;5056665;28;20275;-67
2024/01/13 06:15:30;;;;;;;5.35;3.33;;;2.10;99.90;;;;;;5056373;28;20202;-64
2024/01/13 06:17:57;;;;;;;4.50;3.67;;;2.10;99.90;;;;;;5055997;28;20232;-65
2024/01/13 06:20:24;;;;;;;4.60;3.63;;;2.10;99.90;;;;;;5055458;28;20245;-66
2024/01/13 06:22:51;;;;;;;4.60;3.45;;;2.20;99.90;;;;;;5055416;28;20218;-66
2024/01/13 06:25:18;;;;;;;3.03;2.72;;;2.10;99.90;;;;;;5055696;28;20202;-66
2024/01/13 06:27:44;;;;;;;5.70;3.13;;;2.10;99.90;;;;;;5055732;28;20259;-65
2024/01/13 06:30:13;;;;;;;3.60;2.97;;;2.10;99.90;;;;;;5055439;28;20206;-65
2024/01/13 06:32:40;;;;;;;4.50;3.35;;;2.10;99.90;;;;;;5055208;28;20683;-64
2024/01/13 06:35:08;;;;;;;4.10;3.45;;;2.10;99.90;;;;;;5053971;28;20583;-65
2024/01/13 06:37:34;;;;;;;4.90;3.60;;;2.10;99.90;;;;;;5054952;28;20201;-64
2024/01/13 06:40:01;;;;;;;5.20;3.65;;;2.10;99.90;;;;;;5054897;28;20197;-65
2024/01/13 06:42:28;;;;;;;5.82;3.67;;;2.10;99.90;;;;;;5055067;28;20218;-66
2024/01/13 06:44:55;;;;;;;3.38;2.95;;;2.10;99.90;;;;;;5054728;28;20745;-65
2024/01/13 06:47:23;;;;;;;3.50;2.63;;;2.10;99.90;;;;;;5055322;28;20205;-65
2024/01/13 06:49:50;;;;;;;4.22;2.90;;;2.10;99.90;;;;;;5055711;28;20581;-65
2024/01/13 06:52:16;;;;;;;4.50;3.30;;;2.10;99.90;;;;;;5055454;28;20225;-66
2024/01/13 06:54:43;;;;;;;3.17;2.80;;;2.10;99.90;;;;;;5055323;28;20201;-63
2024/01/13 06:57:10;;;;;;;3.92;3.15;;;2.10;99.90;;;;;;5055282;28;20197;-65
2024/01/13 06:59:37;;;;;;;3.58;2.67;;;2.10;99.90;;;;;;5057109;28;20683;-65
2024/01/13 07:02:04;;;;;;;3.30;2.35;;;2.10;99.90;;;;;;5056665;28;20252;-64
2024/01/13 07:04:36;;;;;;;3.38;2.45;;;2.10;99.90;;;;;;5057792;28;20571;-64
2024/01/13 07:07:04;;;;;;;3.28;2.58;;;2.10;99.90;;;;;;5058397;28;20190;-65
2024/01/13 07:09:30;;;;;;;9.20;2.60;;;2.10;99.90;;;;;;5058232;28;20738;-65
2024/01/13 07:11:57;;;;;;;3.42;2.45;;;2.10;99.90;;;;;;5061673;28;20236;-64
2024/01/13 07:14:25;;;;;;;2.85;2.28;;;2.10;99.90;;;;;;5062734;28;20265;-65
2024/01/13 07:16:51;;;;;;;4.15;2.72;;;2.10;99.90;;;;;;5058737;28;20202;-64
2024/01/13 07:19:18;;;;;;;3.05;2.53;;;2.10;99.90;;;;;;5057247;28;20201;-65
2024/01/13 07:21:46;;;;;;;3.42;2.40;;;2.10;99.90;;;;;;5056702;28;20224;-65
2024/01/13 07:24:13;;;;;;;5.13;2.90;;;2.10;99.90;;;;;;5055492;28;20201;-65
2024/01/13 07:26:40;;;;;;;2.88;2.65;;;2.10;99.90;;;;;;5055164;28;20559;-66
2024/01/13 07:29:06;;;;;;;3.20;2.20;;;2.10;99.90;;;;;;5054949;28;20209;-66
2024/01/13 07:31:33;;;;;;;4.45;2.55;;;2.10;99.90;;;;;;5055129;28;20251;-67
2024/01/13 07:34:00;;;;;;;3.13;2.10;;;2.10;99.90;;;;;;5055254;28;20202;-66
2024/01/13 07:36:27;;;;;;;3.70;2.60;;;2.10;99.90;;;;;;5054837;28;20296;-65
2024/01/13 07:38:56;;;;;;;3.30;2.50;;;2.10;99.90;;;;;;5055474;28;20202;-66
2024/01/13 07:41:23;;;;;;;2.55;2.28;;;2.10;99.90;;;;;;5055346;28;20221;-65
2024/01/13 07:43:49;;;;;;;2.25;2.05;;;2.10;99.90;;;;;;5055021;28;20217;-66
2024/01/13 07:46:16;;;;;;;2.45;1.92;;;2.10;99.90;;;;;;5054753;28;20604;-65
2024/01/13 07:48:43;;;;;;;2.13;1.55;;;2.10;99.90;;;;;;5054822;28;20631;-66
2024/01/13 07:51:10;;;;;;;2.38;2.13;;;2.20;99.90;;;;;;5054485;28;20222;-66
2024/01/13 07:53:37;;;;;;;2.55;2.03;;;2.20;99.90;;;;;;5054732;28;20300;-66
2024/01/13 07:56:05;;;;;;;2.53;2.33;;;2.20;99.90;;;;;;5053889;28;20201;-66
2024/01/13 07:58:32;;;;;;;3.20;1.83;;;2.20;99.90;;;;;;5054331;28;20206;-66
2024/01/13 08:00:59;;;;;;;2.03;1.67;;;2.30;99.90;;;;;;5054518;28;20217;-65
2024/01/13 08:03:25;;;;;;;2.78;2.10;;;2.30;99.90;;;;;;5054668;28;20190;-65
2024/01/13 08:05:52;;;;;;;2.30;1.70;;;2.30;99.90;;;;;;5053987;28;20197;-65
2024/01/13 08:08:19;;;;;;;2.38;1.60;;;2.40;99.90;;;;;;5054232;28;20563;-66
2024/01/13 08:10:46;;;;;;;2.22;1.92;;;2.40;99.90;;;;;;5054589;28;20201;-65
2024/01/13 08:13:15;;;;;;;2.45;1.65;;;2.40;99.90;;;;;;5056479;28;20687;-65
2024/01/13 08:15:42;;;;;;;1.52;1.42;;;2.50;99.90;;;;;;5055905;28;20201;-65
2024/01/13 08:18:09;;;;;;;1.80;1.60;;;2.50;99.90;;;;;;5056240;28;20201;-64
2024/01/13 08:20:36;;;;;;;2.30;1.70;;;2.50;99.90;;;;;;5055162;28;20202;-64
2024/01/13 08:23:03;;;;;;;2.85;2.25;;;2.50;99.90;;;;;;5054556;28;20205;-65
2024/01/13 08:25:30;;;;;;;2.80;2.60;;;2.50;99.90;;;;;;5056502;28;20279;-64
2024/01/13 08:27:57;;;;;;;2.35;2.15;;;2.50;99.90;;;;;;5062964;28;20208;-65
2024/01/13 08:30:25;;;;;;;2.33;2.13;;;2.50;99.90;;;;;;5064500;28;20197;-64
2024/01/13 08:32:52;;;;;;;3.20;2.90;;;2.60;99.90;;;;;;5061875;28;20237;-66
2024/01/13 08:35:18;;;;;;;2.60;2.17;;;2.60;99.90;;;;;;5060253;28;20217;-66
2024/01/13 08:37:45;;;;;;;2.67;2.17;;;2.60;99.90;;;;;;5058332;28;20210;-65
2024/01/13 08:40:12;;;;;;;2.60;2.20;;;2.60;99.90;;;;;;5057610;28;20213;-65
2024/01/13 08:42:39;;;;;;;3.17;2.63;;;2.60;99.90;;;;;;5057202;28;20218;-65
2024/01/13 08:45:06;;;;;;;3.47;2.70;;;2.60;99.90;;;;;;5056864;28;20202;-67
2024/01/13 08:47:34;;;;;;;5.85;2.67;;;2.50;99.90;;;;;;5056436;28;20212;-63
2024/01/13 08:50:02;;;;;;;4.05;2.80;;;2.50;99.90;;;;;;5056169;28;20209;-66
2024/01/13 08:52:29;;;;;;;4.60;2.28;;;2.50;99.90;;;;;;5056997;28;20600;-66
2024/01/13 08:54:56;;;;;;;3.05;2.20;;;2.50;99.90;;;;;;5056038;28;20229;-64
2024/01/13 08:57:22;;;;;;;2.78;2.47;;;2.60;99.90;;;;;;5056900;28;20202;-66
2024/01/13 08:59:49;;;;;;;3.05;2.50;;;2.60;99.90;;;;;;5059296;28;20253;-65
2024/01/13 09:02:16;;;;;;;2.50;2.10;;;2.60;99.90;;;;;;5059388;28;20237;-65
2024/01/13 09:04:44;;;;;;;4.13;3.00;;;2.70;99.90;;;;;;5059228;28;20201;-64
2024/01/13 09:07:11;;;;;;;3.45;2.58;;;2.80;99.90;;;;;;5058899;28;20226;-66
2024/01/13 09:09:38;;;;;;;3.58;3.05;;;2.80;99.90;;;;;;5058562;28;20233;-65
2024/01/13 09:12:05;;;;;;;3.55;2.50;;;2.90;99.90;;;;;;5058650;28;20308;-64
2024/01/13 09:14:31;;;;;;;3.78;3.35;;;2.90;99.90;;;;;;5058240;28;20201;-65
2024/01/13 09:16:58;;;;;;;3.58;3.20;;;2.90;99.90;;;;;;5058398;28;20209;-65
2024/01/13 09:19:25;;;;;;;4.55;3.50;;;2.90;99.90;;;;;;5058373;28;20221;-66
2024/01/13 09:21:53;;;;;;;5.95;4.07;;;2.90;99.90;;;;;;5058103;28;20227;-65
2024/01/13 09:24:20;;;;;;;5.70;4.30;;;2.90;99.90;;;;;;5058212;28;20198;-66
2024/01/13 09:26:48;;;;;;;4.32;3.35;;;2.90;99.90;;;;;;5057943;28;20212;-65
2024/01/13 09:29:15;;;;;;;4.20;3.65;;;2.90;99.90;;;;;;5062553;28;20198;-65
2024/01/13 09:31:42;;;;;;;4.70;3.65;;;2.90;99.90;;;;;;5065805;28;20222;-65
2024/01/13 09:34:10;;;;;;;4.72;4.22;;;2.90;99.90;;;;;;5063360;28;20275;-66
2024/01/13 09:36:36;;;;;;;5.53;4.18;;;2.90;99.90;;;;;;5060805;28;20668;-66
2024/01/13 09:39:05;;;;;;;6.93;4.22;;;2.90;99.90;;;;;;5059466;28;20201;-65
2024/01/13 09:41:31;;;;;;;5.68;4.90;;;2.90;99.90;;;;;;5057684;28;20218;-65
2024/01/13 09:44:03;;;;;;;5.88;4.90;;;2.90;99.90;;;;;;5060050;28;20288;-65
2024/01/13 09:46:30;;;;;;;5.82;4.43;;;2.90;99.90;;;;;;5059402;28;20636;-66
2024/01/13 09:48:57;;;;;;;6.22;5.15;;;2.90;99.90;;;;;;5058865;28;20205;-65
2024/01/13 09:51:25;;;;;;;4.00;3.40;;;2.90;99.90;;;;;;5059936;28;20573;-65
2024/01/13 09:53:58;;;;;;;5.18;4.22;;;3.00;99.90;;;;;;5057777;28;20721;-65
2024/01/13 09:56:32;;;;;;;4.47;3.55;;;3.00;99.90;;;;;;5058249;28;20185;-64
2024/01/13 09:58:59;;;;;;;5.50;4.00;;;3.00;99.90;;;;;;5058421;28;20194;-65
2024/01/13 10:01:27;;;;;;;5.90;4.22;;;3.00;99.90;;;;;;5058372;28;20233;-64
2024/01/13 10:03:54;;;;;;;5.60;5.10;;;3.10;99.90;;;;;;5058681;28;20558;-63
2024/01/13 10:06:21;;;;;;;4.90;4.25;;;3.10;99.90;;;;;;5059124;28;20198;-66
2024/01/13 10:08:50;;;;;;;6.40;4.55;;;3.10;99.90;;;;;;5057975;28;20214;-66
2024/01/13 10:11:16;;;;;;;7.38;4.70;;;3.10;99.90;;;;;;5057902;28;20232;-64
2024/01/13 10:13:59;;;;;;;7.57;6.25;;;3.00;99.90;;;;;;5058984;28;20226;-64
2024/01/13 10:16:28;;;;;;;6.35;5.18;;;3.00;99.90;;;;;;5057652;28;20190;-64
2024/01/13 10:18:55;;;;;;;6.47;5.22;;;3.00;99.90;;;;;;5057308;28;20716;-65
2024/01/13 10:21:23;;;;;;;7.78;5.40;;;3.10;99.90;;;;;;5057471;28;20579;-65
2024/01/13 10:23:50;;;;;;;6.05;4.85;;;3.10;99.90;;;;;;5057586;28;20267;-65
2024/01/13 10:26:17;;;;;;;6.07;5.03;;;3.20;99.90;;;;;;5057354;28;20584;-65
2024/01/13 10:28:45;;;;;;;5.80;4.85;;;3.20;99.90;;;;;;5057318;28;20197;-65
2024/01/13 10:31:12;;;;;;;7.90;5.70;;;3.30;99.90;;;;;;5057393;28;20226;-66
2024/01/13 10:33:40;;;;;;;6.07;5.25;;;3.40;99.90;;;;;;5057213;28;20581;-64
2024/01/13 10:36:10;;;;;;;7.80;5.55;;;3.40;99.90;;;;;;5056912;28;20197;-66
2024/01/13 10:38:39;;;;;;;8.02;5.55;;;3.50;99.90;;;;;;5057123;28;20271;-65
2024/01/13 10:41:06;;;;;;;7.45;6.00;;;3.50;99.90;;;;;;5056696;28;20642;-65
2024/01/13 10:43:34;;;;;;;6.05;4.95;;;3.50;99.90;;;;;;5057592;28;20521;-65
2024/01/13 10:46:06;;;;;;;5.70;4.47;;;3.50;99.90;;;;;;5057003;28;20205;-65
2024/01/13 10:48:41;;;;;;;5.55;5.05;;;3.60;99.90;;;;;;5056638;28;20265;-65
2024/01/13 10:51:16;;;;;;;5.93;5.10;;;3.70;99.90;;;;;;5056514;28;20227;-66
2024/01/13 10:53:47;;;;;;;7.40;5.80;;;3.70;99.90;;;;;;5056521;28;20521;-66
2024/01/13 10:56:16;;;;;;;6.15;5.00;;;3.70;99.90;;;;;;5065300;28;20182;-67
2024/01/13 10:58:45;;;;;;;5.80;4.60;;;3.60;99.90;;;;;;5068521;28;20202;-65
2024/01/13 11:01:14;;;;;;;6.40;5.15;;;3.60;99.90;;;;;;5066926;28;20249;-66
2024/01/13 11:03:41;;;;;;;5.50;4.63;;;3.60;99.90;;;;;;5061464;28;20182;-65
2024/01/13 11:06:08;;;;;;;6.50;4.18;;;3.60;99.90;;;;;;5059500;28;20209;-65
2024/01/13 11:08:36;;;;;;;6.85;5.28;;;3.50;99.90;;;;;;5040209;28;20725;-65
2024/01/13 11:11:03;;;;;;;6.75;4.55;;;3.50;99.90;;;;;;5057461;28;20226;-66
2024/01/13 11:13:33;;;;;;;5.45;4.70;;;3.50;99.90;;;;;;5059379;28;20218;-66
2024/01/13 11:16:04;;;;;;;5.15;4.50;;;3.40;99.90;;;;;;5058518;28;20202;-65
2024/01/13 11:18:37;;;;;;;5.22;4.00;;;3.40;99.90;;;;;;5057812;28;20187;-65
2024/01/13 11:21:05;;;;;;;7.30;5.45;;;3.40;99.90;;;;;;5057089;28;20232;-65
2024/01/13 11:23:39;;;;;;;5.75;5.15;;;3.30;99.90;;;;;;5058476;28;20198;-65
2024/01/13 11:26:07;;;;;;;6.30;4.93;;;3.30;99.90;;;;;;5058802;28;20216;-64
2024/01/13 11:28:50;;;;;;;5.35;4.10;;;3.40;99.90;;;;;;5057068;28;20221;-65
2024/01/13 11:31:33;;;;;;;7.90;5.10;;;3.40;99.90;;;;;;5057795;28;20222;-65
2024/01/13 11:34:02;;;;;;;4.35;3.95;;;3.40;99.90;;;;;;5057004;28;20264;-64
2024/01/13 11:36:30;;;;;;;5.70;4.72;;;3.40;99.90;;;;;;5057399;28;20613;-64
2024/01/13 11:38:58;;;;;;;6.88;5.35;;;3.30;99.90;;;;;;5056877;28;20236;-65
2024/01/13 11:41:38;;;;;;;7.65;5.78;;;3.30;99.90;;;;;;5058410;28;20228;-66
2024/01/13 11:44:05;;;;;;;5.82;4.07;;;3.30;99.90;;;;;;5058186;28;20239;-64
2024/01/13 11:46:34;;;;;;;5.35;4.57;;;3.30;99.90;;;;;;5056110;28;20206;-65
2024/01/13 11:49:03;;;;;;;4.85;4.35;;;3.30;99.90;;;;;;5055292;28;20651;-66
2024/01/13 11:51:57;;;;;;;9.02;5.70;;;3.30;99.90;;;;;;5057531;28;20244;-63
2024/01/13 11:54:25;;;;;;;7.40;4.70;;;3.30;99.90;;;;;;5063967;28;20271;-65
2024/01/13 11:56:52;;;;;;;7.10;5.50;;;3.30;99.90;;;;;;5060399;28;20300;-66
2024/01/13 11:59:19;;;;;;;5.55;4.68;;;3.30;99.90;;;;;;5056794;28;20632;-66
2024/01/13 12:01:46;;;;;;;8.07;5.18;;;3.30;99.90;;;;;;5055137;28;20240;-64
2024/01/13 12:04:16;;;;;;;6.25;5.05;;;3.30;99.90;;;;;;5054786;28;20204;-65
2024/01/13 12:06:44;;;;;;;6.57;5.60;;;3.30;99.90;;;;;;5056047;28;20193;-63
2024/01/13 12:09:15;;;;;;;10.85;6.18;;;3.20;99.90;;;;;;5054717;28;20201;-68
2024/01/13 12:11:42;;;;;;;6.20;5.60;;;3.20;99.90;;;;;;5054907;28;20294;-68
2024/01/13 12:14:09;;;;;;;5.35;4.55;;;3.20;99.90;;;;;;5054662;28;20694;-69
2024/01/13 12:16:36;;;;;;;5.70;5.10;;;3.20;99.90;;;;;;5055201;28;20575;-68
2024/01/13 12:19:04;;;;;;;6.15;4.95;;;3.20;99.90;;;;;;5055133;28;20733;-68
2024/01/13 12:21:32;;;;;;;7.15;4.85;;;3.20;99.90;;;;;;5055693;28;20221;-68
2024/01/13 12:24:00;;;;;;;5.07;4.20;;;3.10;99.90;;;;;;5055885;28;20204;-69
2024/01/13 12:26:31;;;;;;;6.80;4.38;;;3.20;99.90;;;;;;5055669;28;20197;-68
2024/01/13 12:28:59;;;;;;;5.35;4.18;;;3.10;99.90;;;;;;5056517;28;20197;-70
2024/01/13 12:31:26;;;;;;;6.57;4.82;;;3.10;99.90;;;;;;5060939;28;20285;-68
2024/01/13 12:33:53;;;;;;;7.88;6.03;;;3.10;99.90;;;;;;5061333;28;20229;-68
2024/01/13 12:36:20;;;;;;;6.03;4.60;;;3.10;99.90;;;;;;5059702;28;20296;-68
2024/01/13 12:38:48;;;;;;;6.35;5.60;;;3.10;99.90;;;;;;5059279;28;20235;-68
2024/01/13 12:41:15;;;;;;;7.57;4.78;;;3.10;99.90;;;;;;5059995;28;20738;-65
2024/01/13 12:43:42;;;;;;;8.18;5.28;;;3.00;99.90;;;;;;5059758;28;20225;-63
2024/01/13 12:46:10;;;;;;;7.05;5.32;;;3.00;99.90;;;;;;5059327;28;20201;-65
2024/01/13 12:48:40;;;;;;;9.23;6.05;;;3.00;99.90;;;;;;5059080;28;20206;-66
2024/01/13 12:51:12;;;;;;;8.98;5.55;;;3.00;99.90;;;;;;5058374;28;20233;-66
2024/01/13 12:53:43;;;;;;;7.40;5.63;;;3.10;99.90;;;;;;5058801;28;20221;-66
2024/01/13 12:56:11;;;;;;;9.27;5.95;;;3.10;99.90;;;;;;5058309;28;20648;-65